< < Back
Terminal Aerodrome Forecast


Current Version              Previous Versions:   1  2  3  4  5  6  7  8  9  

Terminal Aerodrome Forecast

068
FTUS44 KMRX 172320
TAFCHA
TAF
KCHA 172320Z 1800/1824 13008KT P6SM BKN250
     FM180600 08003KT P6SM SCT050 BKN120
     FM181000 04006KT P6SM BKN050=

Latest METAR

187
SAUS80 KWBC 180000 RRA
MTRCHA
METAR KCHA 172353Z 17004KT 10SM FEW150 BKN250 18/04 A3029 RMK AO2 SLP256
T01830039 10200 20167 55002


USA.gov is the U.S. government's official web portal to all federal, state and local government web resources and services.